createdAt,value
2019-01-14T00:00:50.255Z,1.4
2019-01-14T00:02:50.211Z,1.6
2019-01-14T00:04:55.819Z,1.5
2019-01-14T00:06:50.002Z,1.5
2019-01-14T00:08:50.090Z,1.5
2019-01-14T00:10:50.099Z,2.7
2019-01-14T00:12:50.176Z,1.6
2019-01-14T00:14:50.213Z,1.7
2019-01-14T00:16:50.386Z,1.8
2019-01-14T00:18:50.494Z,1.8
2019-01-14T00:20:50.437Z,1.9
2019-01-14T00:22:50.484Z,1.4
2019-01-14T00:24:50.500Z,1.9
2019-01-14T00:26:49.818Z,1.8
2019-01-14T00:28:49.864Z,2.1
2019-01-14T00:30:49.822Z,2.1
2019-01-14T00:32:49.807Z,1.7
2019-01-14T00:34:50.179Z,1.8
2019-01-14T00:36:50.355Z,1.7
2019-01-14T00:38:50.383Z,1.7
2019-01-14T00:40:50.359Z,1.9
2019-01-14T00:42:50.351Z,1.7
2019-01-14T00:44:50.448Z,2.0
2019-01-14T00:46:49.682Z,2.0
2019-01-14T00:48:49.706Z,1.8
2019-01-14T00:50:49.691Z,1.8
2019-01-14T00:52:49.716Z,1.6
2019-01-14T00:54:49.790Z,1.6
2019-01-14T00:56:49.929Z,1.6
2019-01-14T00:58:49.945Z,1.7
2019-01-14T01:00:49.982Z,1.8
2019-01-14T01:02:49.976Z,1.7
2019-01-14T01:04:50.285Z,1.7
2019-01-14T01:06:50.472Z,2.0
2019-01-14T01:08:50.419Z,2.0
2019-01-14T01:10:50.455Z,1.9
2019-01-14T01:12:50.389Z,1.7
2019-01-14T01:14:50.350Z,1.9
2019-01-14T01:16:49.593Z,1.9
2019-01-14T01:18:49.633Z,2.3
2019-01-14T01:20:49.698Z,2.1
2019-01-14T01:22:49.665Z,1.9
2019-01-14T01:24:49.673Z,1.9
2019-01-14T01:26:49.983Z,2.0
2019-01-14T01:28:49.978Z,2.0
2019-01-14T01:30:49.994Z,2.2
2019-01-14T01:32:50.066Z,2.1
2019-01-14T01:34:50.326Z,2.1
2019-01-14T01:36:50.439Z,2.2
2019-01-14T01:38:50.459Z,2.1
2019-01-14T01:40:50.335Z,2.0
2019-01-14T01:42:50.381Z,2.0
2019-01-14T01:44:50.300Z,2.4
2019-01-14T01:46:50.470Z,2.3
2019-01-14T01:48:50.385Z,2.3
2019-01-14T01:50:50.350Z,2.2
2019-01-14T01:52:50.422Z,2.5
2019-01-14T01:54:50.346Z,2.5
2019-01-14T01:56:49.594Z,2.0
2019-01-14T01:58:49.587Z,2.2
2019-01-14T02:00:49.558Z,2.3
2019-01-14T02:02:49.549Z,2.4
2019-01-14T02:04:49.991Z,2.1
2019-01-14T02:06:50.221Z,2.1
2019-01-14T02:08:50.282Z,2.2
2019-01-14T02:10:50.296Z,2.2
2019-01-14T02:12:50.400Z,2.3
2019-01-14T02:14:49.515Z,2.3
2019-01-14T02:16:49.757Z,2.0
2019-01-14T02:18:49.848Z,2.3
2019-01-14T02:20:49.848Z,2.5
2019-01-14T02:22:49.960Z,2.3
2019-01-14T02:24:50.075Z,2.3
2019-01-14T02:26:50.495Z,2.2
2019-01-14T02:28:49.543Z,2.2
2019-01-14T02:30:49.649Z,2.1
2019-01-14T02:32:49.755Z,2.1
2019-01-14T02:34:50.108Z,2.6
2019-01-14T02:36:50.274Z,2.3
2019-01-14T02:38:50.223Z,2.3
2019-01-14T02:40:50.255Z,2.1
2019-01-14T02:42:50.286Z,2.1
2019-01-14T02:44:50.319Z,2.6
2019-01-14T02:46:49.608Z,2.3
2019-01-14T02:48:49.664Z,2.3
2019-01-14T02:50:49.771Z,2.3
2019-01-14T02:52:49.793Z,2.1
2019-01-14T02:54:49.825Z,2.0
2019-01-14T02:56:50.098Z,2.3
2019-01-14T02:58:50.104Z,2.2
2019-01-14T03:00:50.097Z,2.1
2019-01-14T03:02:50.100Z,2.1
2019-01-14T03:04:50.272Z,2.4
2019-01-14T03:06:58.165Z,2.4
2019-01-14T03:08:50.315Z,2.3
2019-01-14T03:10:50.384Z,2.4
2019-01-14T03:12:50.373Z,2.4
2019-01-14T03:14:50.532Z,2.2
2019-01-14T03:16:49.771Z,2.1
2019-01-14T03:18:49.760Z,2.2
2019-01-14T03:20:49.747Z,2.2
2019-01-14T03:22:49.808Z,2.1
2019-01-14T03:24:49.877Z,2.0
2019-01-14T03:26:50.033Z,2.1
2019-01-14T03:28:50.040Z,2.1
2019-01-14T03:30:50.034Z,2.1
2019-01-14T03:32:50.141Z,2.1
2019-01-14T03:34:50.329Z,2.0
2019-01-14T03:36:50.517Z,2.0
2019-01-14T03:38:49.635Z,2.1
2019-01-14T03:40:49.573Z,2.1
2019-01-14T03:42:49.564Z,2.1
2019-01-14T03:44:49.606Z,1.9
2019-01-14T03:46:49.800Z,1.9
2019-01-14T03:48:49.829Z,2.1
2019-01-14T03:50:49.859Z,1.9
2019-01-14T03:52:49.855Z,1.7
2019-01-14T03:54:49.859Z,1.7
2019-01-14T03:56:50.188Z,2.0
2019-01-14T03:58:50.158Z,2.0
2019-01-14T04:00:50.167Z,1.6
2019-01-14T04:02:50.242Z,1.6
2019-01-14T04:04:49.667Z,2.0
2019-01-14T04:06:49.813Z,2.0
2019-01-14T04:08:49.755Z,1.8
2019-01-14T04:10:49.761Z,1.9
2019-01-14T04:12:49.761Z,1.9
2019-01-14T04:14:49.781Z,1.7
2019-01-14T04:16:49.907Z,1.8
2019-01-14T04:18:49.922Z,1.8
2019-01-14T04:20:49.914Z,1.5
2019-01-14T04:22:49.900Z,1.5
2019-01-14T04:24:49.870Z,1.5
2019-01-14T04:26:50.111Z,1.6
2019-01-14T04:28:50.175Z,1.7
2019-01-14T04:30:50.152Z,1.7
2019-01-14T04:32:50.200Z,2.1
2019-01-14T04:34:49.629Z,1.8
2019-01-14T04:36:49.948Z,1.6
2019-01-14T04:38:49.940Z,1.6
2019-01-14T04:40:49.924Z,1.7
2019-01-14T04:42:49.886Z,1.5
2019-01-14T04:44:49.936Z,1.7
2019-01-14T04:46:50.201Z,1.7
2019-01-14T04:48:50.232Z,1.8
2019-01-14T04:50:50.228Z,1.8
2019-01-14T04:52:50.179Z,1.7
2019-01-14T04:54:50.080Z,1.8
2019-01-14T04:56:50.210Z,1.8
2019-01-14T04:58:50.214Z,1.7
2019-01-14T05:00:50.105Z,2.4
2019-01-14T05:02:50.099Z,1.7
2019-01-14T05:04:50.354Z,1.7
2019-01-14T05:06:50.465Z,1.7
2019-01-14T05:08:50.431Z,1.7
2019-01-14T05:10:50.459Z,1.6
2019-01-14T05:12:50.439Z,1.6
2019-01-14T05:14:50.426Z,1.6
2019-01-14T05:16:49.731Z,1.9
2019-01-14T05:18:49.844Z,1.6
2019-01-14T05:20:49.823Z,1.6
2019-01-14T05:22:49.829Z,1.1
2019-01-14T05:24:49.863Z,1.5
2019-01-14T05:26:49.740Z,1.0
2019-01-14T05:28:49.760Z,1.0
2019-01-14T05:30:49.770Z,1.1
2019-01-14T05:32:49.752Z,1.2
2019-01-14T05:34:50.013Z,1.1
2019-01-14T05:36:50.245Z,1.1
2019-01-14T05:38:50.220Z,0.9
2019-01-14T05:40:50.322Z,0.9
2019-01-14T05:42:50.322Z,0.9
2019-01-14T05:44:50.343Z,0.9
2019-01-14T05:46:50.490Z,1.1
2019-01-14T05:48:50.568Z,1.0
2019-01-14T05:50:49.531Z,1.1
2019-01-14T05:52:49.664Z,1.4
2019-01-14T05:54:49.779Z,1.0
2019-01-14T05:56:50.002Z,1.0
2019-01-14T05:58:50.047Z,1.2
2019-01-14T06:00:50.031Z,0.9
2019-01-14T06:02:50.062Z,1.1
2019-01-14T06:04:50.385Z,1.1
2019-01-14T06:06:49.549Z,1.1
2019-01-14T06:08:49.625Z,1.2
2019-01-14T06:10:49.714Z,1.4
2019-01-14T06:12:49.706Z,1.4
2019-01-14T06:14:49.713Z,1.2
2019-01-14T06:16:50.028Z,1.3
2019-01-14T06:18:50.047Z,1.3
2019-01-14T06:20:50.042Z,1.5
2019-01-14T06:22:50.008Z,1.5
2019-01-14T06:24:50.007Z,1.5
2019-01-14T06:26:50.149Z,1.5
2019-01-14T06:28:50.244Z,1.5
2019-01-14T06:30:50.302Z,1.5
2019-01-14T06:32:50.315Z,1.5
2019-01-14T06:34:49.646Z,1.8
2019-01-14T06:36:49.550Z,1.8
2019-01-14T06:38:49.646Z,1.6
2019-01-14T06:40:49.664Z,1.7
2019-01-14T06:42:49.712Z,1.8
2019-01-14T06:44:49.689Z,1.8
2019-01-14T06:46:50.068Z,1.4
2019-01-14T06:48:49.998Z,1.8
2019-01-14T06:50:50.020Z,1.5
2019-01-14T06:52:50.043Z,1.5
2019-01-14T06:54:50.014Z,1.5
2019-01-14T06:56:50.197Z,1.6
2019-01-14T06:58:50.212Z,1.8
2019-01-14T07:00:50.308Z,1.8
2019-01-14T07:02:50.217Z,1.8
2019-01-14T07:04:50.469Z,1.7
2019-01-14T07:06:49.601Z,1.7
2019-01-14T07:08:49.688Z,1.6
2019-01-14T07:10:49.717Z,1.5
2019-01-14T07:12:49.757Z,1.5
2019-01-14T07:14:49.834Z,1.7
2019-01-14T07:16:50.071Z,1.8
2019-01-14T07:18:50.079Z,1.7
2019-01-14T07:20:50.075Z,1.6
2019-01-14T07:22:50.096Z,1.6
2019-01-14T07:24:50.104Z,1.8
2019-01-14T07:26:50.366Z,1.7
2019-01-14T07:28:50.316Z,1.7
2019-01-14T07:30:50.419Z,1.7
2019-01-14T07:32:50.439Z,1.7
2019-01-14T07:34:49.788Z,1.7
2019-01-14T07:36:49.943Z,1.6
2019-01-14T07:38:49.974Z,1.6
2019-01-14T07:40:50.032Z,1.6
2019-01-14T07:42:50.033Z,1.6
2019-01-14T07:44:49.990Z,1.5
2019-01-14T07:46:50.097Z,1.5
2019-01-14T07:48:50.129Z,1.7
2019-01-14T07:50:50.126Z,1.7
2019-01-14T07:52:50.145Z,1.7
2019-01-14T07:54:50.113Z,1.7
2019-01-14T07:56:50.343Z,1.8
2019-01-14T07:58:50.326Z,1.7
2019-01-14T08:00:50.425Z,1.7
2019-01-14T08:02:50.388Z,1.8
2019-01-14T08:04:49.754Z,1.8
2019-01-14T08:06:49.862Z,1.9
2019-01-14T08:08:49.892Z,1.6
2019-01-14T08:10:49.861Z,1.6
2019-01-14T08:12:49.893Z,1.8
2019-01-14T08:14:50.002Z,1.8
2019-01-14T08:16:50.269Z,1.9
2019-01-14T08:18:50.361Z,2.0
2019-01-14T08:20:50.412Z,2.0
2019-01-14T08:22:50.457Z,1.9
2019-01-14T08:24:50.489Z,1.9
2019-01-14T08:26:49.778Z,1.7
2019-01-14T08:28:49.814Z,1.7
2019-01-14T08:30:49.822Z,1.6
2019-01-14T08:32:49.816Z,1.7
2019-01-14T08:34:50.071Z,1.5
2019-01-14T08:36:50.285Z,1.5
2019-01-14T08:38:50.303Z,1.5
2019-01-14T08:40:50.337Z,1.7
2019-01-14T08:42:50.260Z,1.8
2019-01-14T08:44:50.215Z,1.8
2019-01-14T08:46:49.548Z,1.7
2019-01-14T08:48:49.593Z,1.7
2019-01-14T08:50:49.671Z,1.6
2019-01-14T08:52:49.632Z,1.8
2019-01-14T08:54:49.642Z,1.5
2019-01-14T08:56:49.845Z,2.0
2019-01-14T08:58:49.816Z,2.0
2019-01-14T09:00:49.762Z,1.8
2019-01-14T09:02:49.832Z,1.5
2019-01-14T09:04:50.267Z,2.0
2019-01-14T09:06:50.475Z,2.0
2019-01-14T09:08:50.493Z,1.7
2019-01-14T09:10:50.506Z,1.9
2019-01-14T09:12:49.626Z,2.0
2019-01-14T09:14:49.621Z,2.1
2019-01-14T09:16:49.789Z,2.1
2019-01-14T09:18:49.792Z,2.1
2019-01-14T09:20:49.749Z,2.6
2019-01-14T09:22:49.836Z,2.9
2019-01-14T09:24:49.844Z,3.0
2019-01-14T09:26:49.983Z,3.0
2019-01-14T09:28:49.934Z,3.2
2019-01-14T09:30:49.951Z,3.4
2019-01-14T09:32:49.956Z,3.3
2019-01-14T09:34:50.256Z,3.1
2019-01-14T09:36:50.494Z,2.8
2019-01-14T09:38:50.516Z,2.8
2019-01-14T09:40:49.531Z,2.8
2019-01-14T09:42:49.582Z,2.9
2019-01-14T09:44:49.526Z,2.9
2019-01-14T09:46:49.716Z,2.5
2019-01-14T09:48:49.802Z,2.7
2019-01-14T09:50:49.783Z,2.6
2019-01-14T09:52:49.720Z,3.1
2019-01-14T09:54:49.767Z,2.6
2019-01-14T09:56:50.023Z,2.6
2019-01-14T09:58:49.986Z,2.1
2019-01-14T10:00:49.958Z,2.9
2019-01-14T10:02:50.022Z,2.5
2019-01-14T10:04:49.548Z,2.3
2019-01-14T10:06:49.753Z,2.3
2019-01-14T10:08:49.714Z,2.2
2019-01-14T10:10:49.742Z,2.2
2019-01-14T10:12:49.747Z,2.4
2019-01-14T10:14:49.670Z,2.4
2019-01-14T10:16:49.899Z,1.7
2019-01-14T10:18:49.941Z,1.8
2019-01-14T10:20:49.929Z,1.7
2019-01-14T10:22:49.957Z,1.8
2019-01-14T10:24:49.899Z,1.8
2019-01-14T10:26:50.072Z,1.8
2019-01-14T10:28:50.071Z,2.1
2019-01-14T10:30:50.074Z,2.0
2019-01-14T10:32:50.051Z,2.0
2019-01-14T10:34:50.253Z,2.0
2019-01-14T10:36:50.600Z,2.0
2019-01-14T10:38:50.747Z,2.1
2019-01-14T10:40:49.731Z,2.1
2019-01-14T10:42:49.794Z,2.2
2019-01-14T10:44:49.783Z,2.2
2019-01-14T10:46:50.021Z,2.2
2019-01-14T10:48:50.078Z,2.2
2019-01-14T10:50:50.078Z,2.4
2019-01-14T10:52:50.036Z,2.3
2019-01-14T10:54:50.082Z,2.3
2019-01-14T10:56:50.340Z,2.4
2019-01-14T10:58:50.335Z,2.1
2019-01-14T11:00:50.276Z,2.3
2019-01-14T11:02:50.393Z,2.3
2019-01-14T11:04:49.677Z,2.3
2019-01-14T11:06:49.994Z,2.6
2019-01-14T11:08:50.057Z,2.6
2019-01-14T11:10:49.847Z,2.8
2019-01-14T11:12:49.867Z,2.8
2019-01-14T11:14:49.879Z,2.8
2019-01-14T11:16:50.093Z,2.7
2019-01-14T11:18:50.067Z,2.6
2019-01-14T11:20:50.081Z,2.4
2019-01-14T11:22:50.214Z,2.4
2019-01-14T11:24:50.179Z,1.8
2019-01-14T11:26:49.788Z,2.0
2019-01-14T11:28:49.724Z,2.1
2019-01-14T11:30:49.737Z,2.1
2019-01-14T11:32:49.733Z,1.9
2019-01-14T11:34:50.228Z,1.9
2019-01-14T11:36:49.526Z,1.9
2019-01-14T11:38:49.603Z,1.9
2019-01-14T11:40:49.539Z,1.8
2019-01-14T11:42:49.524Z,1.9
2019-01-14T11:44:49.591Z,2.1
2019-01-14T11:46:49.801Z,1.8
2019-01-14T11:48:49.792Z,1.7
2019-01-14T11:50:49.751Z,1.7
2019-01-14T11:52:49.799Z,1.9
2019-01-14T11:54:49.835Z,1.8
2019-01-14T11:56:50.304Z,1.8
2019-01-14T11:58:50.419Z,1.9
2019-01-14T12:00:49.649Z,1.9
2019-01-14T12:02:49.663Z,1.8
2019-01-14T12:04:50.115Z,1.8
2019-01-14T12:06:50.440Z,1.8
2019-01-14T12:08:49.587Z,1.8
2019-01-14T12:10:49.775Z,1.7
2019-01-14T12:12:49.929Z,1.7
2019-01-14T12:14:50.211Z,1.9
2019-01-14T12:16:49.581Z,1.6
2019-01-14T12:18:49.751Z,1.6
2019-01-14T12:20:49.784Z,2.0
2019-01-14T12:22:49.824Z,2.0
2019-01-14T12:24:49.742Z,2.0
2019-01-14T12:26:49.899Z,1.9
2019-01-14T12:28:49.876Z,1.9
2019-01-14T12:30:49.791Z,1.5
2019-01-14T12:32:49.808Z,1.8
2019-01-14T12:34:50.144Z,1.8
2019-01-14T12:36:51.935Z,1.9
2019-01-14T12:38:49.997Z,1.9
2019-01-14T12:40:50.054Z,1.9
2019-01-14T12:42:50.011Z,2.3
2019-01-14T12:44:49.976Z,1.6
2019-01-14T12:46:50.190Z,1.9
2019-01-14T12:48:50.112Z,1.8
2019-01-14T12:50:50.227Z,1.8
2019-01-14T12:52:50.180Z,2.2
2019-01-14T12:54:50.155Z,2.2
2019-01-14T12:56:50.376Z,1.8
2019-01-14T12:58:49.582Z,2.3
2019-01-14T13:00:49.692Z,1.7
2019-01-14T13:02:49.860Z,2.0
2019-01-14T13:04:50.394Z,1.6
2019-01-14T13:06:49.687Z,1.6
2019-01-14T13:08:49.799Z,1.6
2019-01-14T13:10:50.080Z,1.8
2019-01-14T13:12:50.126Z,1.9
2019-01-14T13:14:50.124Z,2.2
2019-01-14T13:16:49.543Z,2.2
2019-01-14T13:18:49.884Z,1.8
2019-01-14T13:20:50.097Z,1.8
2019-01-14T13:22:50.189Z,1.7
2019-01-14T13:24:50.414Z,1.7
2019-01-14T13:26:49.761Z,1.7
2019-01-14T13:28:49.735Z,1.8
2019-01-14T13:30:49.716Z,1.8
2019-01-14T13:32:49.908Z,1.8
2019-01-14T13:34:49.515Z,1.8
2019-01-14T13:36:49.944Z,1.8
2019-01-14T13:38:50.026Z,2.0
2019-01-14T13:40:50.301Z,1.8
2019-01-14T13:42:50.446Z,1.8
2019-01-14T13:44:49.672Z,1.9
2019-01-14T13:46:50.084Z,1.9
2019-01-14T13:48:50.182Z,1.9
2019-01-14T13:50:50.366Z,1.7
2019-01-14T13:52:49.581Z,1.8
2019-01-14T13:54:49.546Z,1.8
2019-01-14T13:56:49.759Z,2.3
2019-01-14T13:58:49.741Z,1.9
2019-01-14T14:00:49.743Z,1.7
2019-01-14T14:02:49.733Z,1.9
2019-01-14T14:04:50.002Z,1.9
2019-01-14T14:06:50.158Z,1.8
2019-01-14T14:08:50.197Z,1.7
2019-01-14T14:10:50.133Z,1.7
2019-01-14T14:12:50.207Z,1.8
2019-01-14T14:14:50.170Z,1.4
2019-01-14T14:16:50.312Z,1.4
2019-01-14T14:18:50.337Z,1.2
2019-01-14T14:20:50.318Z,1.8
2019-01-14T14:22:50.364Z,1.7
2019-01-14T14:24:50.267Z,1.7
2019-01-14T14:26:50.494Z,1.4
2019-01-14T14:28:49.545Z,1.4
2019-01-14T14:30:49.570Z,1.4
2019-01-14T14:32:49.568Z,1.3
2019-01-14T14:34:49.882Z,1.3
2019-01-14T14:36:50.083Z,1.1
2019-01-14T14:38:50.142Z,1.4
2019-01-14T14:40:50.190Z,1.4
2019-01-14T14:42:50.257Z,1.6
2019-01-14T14:44:50.186Z,1.3
2019-01-14T14:46:50.475Z,1.2
2019-01-14T14:48:49.570Z,1.4
2019-01-14T14:50:49.522Z,1.5
2019-01-14T14:52:50.566Z,1.5
2019-01-14T14:54:49.621Z,1.5
2019-01-14T14:56:49.759Z,1.6
2019-01-14T14:58:49.713Z,1.6
2019-01-14T15:00:49.717Z,1.4
2019-01-14T15:02:49.780Z,1.4
2019-01-14T15:04:50.039Z,1.4
2019-01-14T15:06:50.292Z,1.4
2019-01-14T15:08:50.272Z,1.4
2019-01-14T15:10:50.268Z,1.4
2019-01-14T15:12:50.209Z,1.6
2019-01-14T15:14:50.160Z,1.5
2019-01-14T15:16:50.286Z,1.3
2019-01-14T15:18:50.301Z,1.3
2019-01-14T15:20:50.201Z,1.3
2019-01-14T15:22:50.165Z,1.7
2019-01-14T15:24:50.225Z,1.5
2019-01-14T15:26:50.389Z,1.6
2019-01-14T15:28:50.375Z,1.9
2019-01-14T15:30:50.355Z,1.9
2019-01-14T15:32:50.441Z,1.5
2019-01-14T15:34:49.679Z,1.6
2019-01-14T15:36:50.040Z,1.5
2019-01-14T15:38:50.052Z,1.6
2019-01-14T15:40:50.095Z,1.6
2019-01-14T15:42:50.109Z,1.5
2019-01-14T15:44:50.221Z,1.5
2019-01-14T15:46:50.438Z,1.7
2019-01-14T15:48:49.611Z,1.6
2019-01-14T15:50:49.608Z,1.6
2019-01-14T15:52:49.627Z,1.5
2019-01-14T15:54:49.709Z,1.5
2019-01-14T15:56:49.876Z,1.8
2019-01-14T15:58:49.885Z,1.6
2019-01-14T16:00:49.939Z,1.6
2019-01-14T16:02:49.919Z,2.0
2019-01-14T16:04:50.333Z,1.9
2019-01-14T16:06:49.527Z,1.8
2019-01-14T16:08:49.637Z,1.6
2019-01-14T16:10:49.695Z,1.6
2019-01-14T16:12:49.779Z,1.7
2019-01-14T16:14:49.715Z,1.7
2019-01-14T16:16:49.961Z,1.9
2019-01-14T16:18:49.920Z,1.9
2019-01-14T16:20:49.880Z,1.6
2019-01-14T16:22:49.858Z,2.1
2019-01-14T16:24:49.835Z,1.8
2019-01-14T16:26:50.018Z,1.9
2019-01-14T16:28:50.013Z,1.9
2019-01-14T16:30:49.989Z,1.6
2019-01-14T16:32:49.999Z,1.9
2019-01-14T16:34:50.160Z,1.9
2019-01-14T16:36:50.305Z,1.7
2019-01-14T16:38:50.290Z,1.7
2019-01-14T16:40:50.223Z,1.7
2019-01-14T16:42:50.221Z,1.6
2019-01-14T16:44:50.149Z,1.5
2019-01-14T16:46:50.338Z,1.5
2019-01-14T16:48:50.332Z,1.5
2019-01-14T16:50:50.268Z,1.6
2019-01-14T16:52:50.336Z,1.4
2019-01-14T16:54:50.262Z,1.5
2019-01-14T16:56:50.453Z,1.5
2019-01-14T16:58:49.667Z,1.7
2019-01-14T17:00:49.729Z,1.5
2019-01-14T17:02:49.674Z,1.3
2019-01-14T17:04:50.105Z,1.6
2019-01-14T17:06:50.234Z,1.6
2019-01-14T17:08:50.376Z,1.6
2019-01-14T17:10:50.313Z,1.6
2019-01-14T17:12:50.312Z,1.5
2019-01-14T17:14:50.265Z,1.5
2019-01-14T17:16:50.432Z,1.6
2019-01-14T17:18:50.421Z,1.4
2019-01-14T17:20:50.359Z,1.9
2019-01-14T17:22:50.480Z,1.6
2019-01-14T17:24:50.480Z,1.5
2019-01-14T17:26:49.696Z,1.5
2019-01-14T17:28:49.778Z,1.5
2019-01-14T17:30:49.760Z,1.8
2019-01-14T17:32:49.827Z,1.8
2019-01-14T17:34:50.170Z,1.6
2019-01-14T17:36:50.322Z,1.5
2019-01-14T17:38:51.238Z,1.7
2019-01-14T17:40:50.209Z,1.4
2019-01-14T17:42:50.150Z,1.6
2019-01-14T17:44:50.194Z,1.5
2019-01-14T17:46:50.391Z,1.5
2019-01-14T17:48:50.362Z,1.5
2019-01-14T17:50:50.391Z,1.6
2019-01-14T17:52:50.360Z,1.5
2019-01-14T17:54:50.342Z,1.6
2019-01-14T17:56:49.685Z,1.6
2019-01-14T17:58:49.710Z,1.5
2019-01-14T18:00:49.851Z,1.6
2019-01-14T18:02:50.240Z,1.5
2019-01-14T18:04:49.693Z,1.5
2019-01-14T18:06:50.015Z,1.5
2019-01-14T18:08:50.035Z,1.7
2019-01-14T18:10:49.979Z,1.4
2019-01-14T18:12:49.953Z,1.6
2019-01-14T18:14:49.918Z,1.6
2019-01-14T18:16:50.125Z,1.6
2019-01-14T18:18:50.074Z,1.4
2019-01-14T18:20:50.049Z,1.6
2019-01-14T18:22:50.066Z,1.7
2019-01-14T18:24:50.021Z,1.7
2019-01-14T18:26:50.313Z,2.0
2019-01-14T18:28:50.226Z,1.8
2019-01-14T18:30:50.276Z,1.4
2019-01-14T18:32:50.305Z,1.4
2019-01-14T18:34:49.599Z,1.4
2019-01-14T18:36:49.833Z,1.4
2019-01-14T18:38:49.899Z,1.5
2019-01-14T18:40:49.893Z,1.6
2019-01-14T18:42:49.902Z,1.6
2019-01-14T18:44:49.877Z,1.5
2019-01-14T18:46:50.125Z,1.8
2019-01-14T18:48:50.211Z,1.8
2019-01-14T18:50:50.249Z,1.9
2019-01-14T18:52:50.301Z,1.9
2019-01-14T18:54:50.337Z,1.7
2019-01-14T18:56:49.621Z,1.5
2019-01-14T18:58:49.696Z,1.8
2019-01-14T19:00:49.838Z,1.8
2019-01-14T19:02:49.811Z,1.6
2019-01-14T19:04:49.950Z,1.6
2019-01-14T19:06:50.235Z,2.0
2019-01-14T19:08:50.341Z,1.6
2019-01-14T19:10:54.781Z,1.5
2019-01-14T19:12:49.795Z,1.5
2019-01-14T19:14:49.836Z,1.7
2019-01-14T19:16:50.137Z,2.0
2019-01-14T19:18:50.165Z,1.7
2019-01-14T19:20:50.114Z,1.9
2019-01-14T19:22:50.157Z,1.9
2019-01-14T19:24:50.115Z,1.9
2019-01-14T19:26:50.351Z,2.2
2019-01-14T19:28:50.405Z,1.8
2019-01-14T19:30:50.332Z,1.8
2019-01-14T19:32:50.456Z,1.7
2019-01-14T19:34:49.767Z,2.0
2019-01-14T19:36:49.995Z,1.9
2019-01-14T19:38:49.966Z,2.2
2019-01-14T19:40:49.944Z,2.2
2019-01-14T19:42:49.965Z,2.4
2019-01-14T19:44:49.969Z,2.1
2019-01-14T19:46:50.130Z,2.1
2019-01-14T19:48:50.079Z,2.4
2019-01-14T19:50:50.085Z,2.4
2019-01-14T19:52:50.154Z,2.2
2019-01-14T19:54:50.132Z,2.3
2019-01-14T19:56:50.338Z,2.3
2019-01-14T19:58:50.357Z,2.2
2019-01-14T20:00:50.280Z,2.2
2019-01-14T20:02:50.361Z,2.4
2019-01-14T20:04:49.638Z,2.0
2019-01-14T20:06:49.957Z,1.8
2019-01-14T20:08:50.068Z,2.1
2019-01-14T20:10:50.091Z,2.1
2019-01-14T20:12:50.133Z,2.0
2019-01-14T20:14:50.151Z,2.1
2019-01-14T20:16:50.407Z,2.2
2019-01-14T20:18:49.514Z,2.2
2019-01-14T20:20:49.614Z,2.2
2019-01-14T20:22:49.636Z,2.6
2019-01-14T20:24:49.708Z,2.6
2019-01-14T20:26:49.972Z,2.2
2019-01-14T20:28:49.963Z,2.5
2019-01-14T20:30:49.921Z,2.5
2019-01-14T20:32:49.949Z,2.5
2019-01-14T20:34:50.196Z,2.5
2019-01-14T20:36:50.412Z,2.4
2019-01-14T20:38:49.607Z,2.4
2019-01-14T20:40:49.767Z,2.3
2019-01-14T20:42:49.862Z,2.4
2019-01-14T20:44:49.858Z,2.9
2019-01-14T20:46:49.966Z,2.9
2019-01-14T20:48:49.985Z,2.5
2019-01-14T20:50:49.991Z,2.3
2019-01-14T20:52:50.072Z,2.3
2019-01-14T20:54:50.110Z,2.2
2019-01-14T20:56:50.428Z,2.3
2019-01-14T20:58:50.530Z,2.2
2019-01-14T21:00:50.500Z,2.2
2019-01-14T21:02:49.659Z,2.2
2019-01-14T21:04:50.023Z,2.2
2019-01-14T21:06:50.335Z,2.2
2019-01-14T21:08:50.364Z,2.5
2019-01-14T21:10:50.506Z,2.2
2019-01-14T21:12:49.589Z,2.1
2019-01-14T21:14:49.615Z,2.4
2019-01-14T21:16:49.841Z,2.4
2019-01-14T21:18:49.866Z,2.3
2019-01-14T21:20:49.820Z,2.9
2019-01-14T21:22:49.800Z,2.7
2019-01-14T21:24:49.814Z,2.7
2019-01-14T21:26:49.924Z,2.6
2019-01-14T21:28:49.889Z,2.6
2019-01-14T21:30:49.931Z,2.4
2019-01-14T21:32:49.917Z,2.4
2019-01-14T21:34:50.216Z,2.4
2019-01-14T21:36:50.427Z,2.4
2019-01-14T21:38:50.530Z,2.6
2019-01-14T21:40:49.561Z,2.8
2019-01-14T21:42:49.682Z,2.8
2019-01-14T21:44:49.701Z,2.4
2019-01-14T21:46:50.028Z,2.9
2019-01-14T21:48:49.983Z,2.9
2019-01-14T21:50:50.014Z,2.4
2019-01-14T21:52:50.031Z,2.2
2019-01-14T21:54:50.002Z,2.2
2019-01-14T21:56:50.180Z,2.9
2019-01-14T21:58:50.161Z,2.6
2019-01-14T22:00:50.194Z,3.1
2019-01-14T22:02:50.222Z,2.6
2019-01-14T22:04:49.539Z,2.6
2019-01-14T22:06:49.813Z,2.3
2019-01-14T22:08:49.864Z,2.6
2019-01-14T22:10:49.921Z,2.5
2019-01-14T22:12:49.932Z,2.6
2019-01-14T22:14:49.905Z,2.6
2019-01-14T22:16:50.114Z,2.8
2019-01-14T22:18:50.121Z,2.8
2019-01-14T22:20:50.115Z,2.6
2019-01-14T22:22:50.095Z,2.7
2019-01-14T22:24:50.216Z,2.7
2019-01-14T22:26:50.488Z,3.3
2019-01-14T22:28:49.569Z,2.7
2019-01-14T22:30:49.551Z,2.9
2019-01-14T22:32:49.554Z,2.9
2019-01-14T22:34:50.090Z,2.9
2019-01-14T22:36:50.229Z,2.7
2019-01-14T22:38:50.243Z,2.9
2019-01-14T22:40:50.266Z,3.1
2019-01-14T22:42:50.228Z,3.1
2019-01-14T22:44:50.327Z,2.5
2019-01-14T22:46:49.536Z,2.5
2019-01-14T22:48:49.555Z,2.8
2019-01-14T22:50:49.666Z,2.8
2019-01-14T22:52:49.692Z,2.5
2019-01-14T22:54:49.810Z,2.9
2019-01-14T22:56:50.123Z,3.0
2019-01-14T22:58:50.135Z,2.6
2019-01-14T23:00:50.101Z,2.7
2019-01-14T23:02:49.636Z,2.7
2019-01-14T23:04:50.241Z,2.6
2019-01-14T23:06:49.532Z,2.8
2019-01-14T23:08:49.584Z,2.8
2019-01-14T23:10:51.037Z,2.5
2019-01-14T23:12:50.093Z,2.3
2019-01-14T23:14:50.079Z,2.3
2019-01-14T23:16:50.258Z,2.8
2019-01-14T23:18:50.262Z,2.5
2019-01-14T23:20:50.246Z,2.5
2019-01-14T23:22:50.344Z,2.5
2019-01-14T23:24:50.687Z,2.5
2019-01-14T23:26:49.980Z,2.5
2019-01-14T23:28:50.004Z,2.5
2019-01-14T23:30:50.040Z,2.4
2019-01-14T23:32:50.020Z,2.4
2019-01-14T23:34:50.351Z,2.6
2019-01-14T23:36:49.716Z,2.8
2019-01-14T23:38:49.707Z,2.4
2019-01-14T23:40:49.721Z,2.4
2019-01-14T23:42:49.749Z,3.3
2019-01-14T23:44:49.751Z,3.0
2019-01-14T23:46:49.889Z,2.7
2019-01-14T23:48:49.834Z,2.1
2019-01-14T23:50:49.820Z,2.1
2019-01-14T23:52:49.833Z,2.9
2019-01-14T23:54:49.805Z,2.6
2019-01-14T23:56:50.010Z,2.7
2019-01-14T23:58:49.990Z,2.6
